createdAt,value
2023-04-16T00:01:08.635Z,7.49
2023-04-16T00:03:36.954Z,7.51
2023-04-16T00:06:05.240Z,7.51
2023-04-16T00:08:33.096Z,7.51
2023-04-16T00:11:00.978Z,7.50
2023-04-16T00:13:32.276Z,7.49
2023-04-16T00:15:59.991Z,7.49
2023-04-16T00:18:27.800Z,7.51
2023-04-16T00:20:55.808Z,7.50
2023-04-16T00:23:25.333Z,7.48
2023-04-16T00:25:53.959Z,7.51
2023-04-16T00:28:21.701Z,7.53
2023-04-16T00:30:49.610Z,7.56
2023-04-16T00:33:17.674Z,7.55
2023-04-16T00:35:46.476Z,7.54
2023-04-16T00:38:14.272Z,7.52
2023-04-16T00:40:42.000Z,7.51
2023-04-16T00:43:10.157Z,7.52
2023-04-16T00:45:38.258Z,7.53
2023-04-16T00:48:06.184Z,7.53
2023-04-16T00:50:34.711Z,7.54
2023-04-16T00:53:03.084Z,7.53
2023-04-16T00:55:33.812Z,7.53
2023-04-16T00:58:01.629Z,7.55
2023-04-16T01:00:29.736Z,7.55
2023-04-16T01:02:57.690Z,7.58
2023-04-16T01:05:25.932Z,7.61
2023-04-16T01:07:54.032Z,7.66
2023-04-16T01:10:22.839Z,7.70
2023-04-16T01:12:50.660Z,7.73
2023-04-16T01:15:18.466Z,7.76
2023-04-16T01:17:46.286Z,7.80
2023-04-16T01:20:14.591Z,7.84
2023-04-16T01:22:42.840Z,7.86
2023-04-16T01:25:16.016Z,7.89
2023-04-16T01:27:43.918Z,7.91
2023-04-16T01:30:11.757Z,7.95
2023-04-16T01:32:50.371Z,7.96
2023-04-16T01:35:18.476Z,7.98
2023-04-16T01:37:46.368Z,7.99
2023-04-16T01:40:14.302Z,8.00
2023-04-16T01:42:42.090Z,8.02
2023-04-16T01:45:10.358Z,8.05
2023-04-16T01:47:40.145Z,8.07
2023-04-16T01:50:08.094Z,8.07
2023-04-16T01:52:37.040Z,8.07
2023-04-16T01:55:05.125Z,8.07
2023-04-16T01:57:33.639Z,8.08
2023-04-16T02:00:01.586Z,8.08
2023-04-16T02:02:30.172Z,8.10
2023-04-16T02:04:58.058Z,8.11
2023-04-16T02:07:27.513Z,8.12
2023-04-16T02:09:55.334Z,8.13
2023-04-16T02:12:23.458Z,8.15
2023-04-16T02:14:54.008Z,8.14
2023-04-16T02:17:23.817Z,8.12
2023-04-16T02:19:53.791Z,8.10
2023-04-16T02:22:21.788Z,8.09
2023-04-16T02:24:50.693Z,8.10
2023-04-16T02:27:18.696Z,8.12
2023-04-16T02:29:47.728Z,8.13
2023-04-16T02:32:16.958Z,8.15
2023-04-16T02:34:46.146Z,8.17
2023-04-16T02:37:15.428Z,8.19
2023-04-16T02:39:44.128Z,8.18
2023-04-16T02:42:11.915Z,8.17
2023-04-16T02:44:40.916Z,8.17
2023-04-16T02:47:08.675Z,8.16
2023-04-16T02:49:36.677Z,8.15
2023-04-16T02:52:04.544Z,8.15
2023-04-16T02:54:32.695Z,8.17
2023-04-16T02:57:00.566Z,8.17
2023-04-16T02:59:28.570Z,8.13
2023-04-16T03:01:56.659Z,8.11
2023-04-16T03:04:24.686Z,8.13
2023-04-16T03:06:53.760Z,8.15
2023-04-16T03:09:21.780Z,8.15
2023-04-16T03:11:49.856Z,8.15
2023-04-16T03:14:17.783Z,8.17
2023-04-16T03:16:45.550Z,8.19
2023-04-16T03:19:13.574Z,8.20
2023-04-16T03:21:41.330Z,8.23
2023-04-16T03:24:09.203Z,8.23
2023-04-16T03:26:37.013Z,8.24
2023-04-16T03:29:05.084Z,8.21
2023-04-16T03:31:33.651Z,8.23
2023-04-16T03:34:01.675Z,8.24
2023-04-16T03:36:32.643Z,8.26
2023-04-16T03:39:00.588Z,8.29
2023-04-16T03:41:28.682Z,8.30
2023-04-16T03:43:56.539Z,8.32
2023-04-16T03:46:24.339Z,8.33
2023-04-16T03:48:52.568Z,8.32
2023-04-16T03:51:21.017Z,8.33
2023-04-16T03:53:48.705Z,8.32
2023-04-16T03:56:17.032Z,8.32
2023-04-16T03:58:45.479Z,8.32
2023-04-16T04:01:13.350Z,8.34
2023-04-16T04:03:41.561Z,8.35
2023-04-16T04:06:09.823Z,8.35
2023-04-16T04:08:38.609Z,8.36
2023-04-16T04:11:06.456Z,8.37
2023-04-16T04:13:35.646Z,8.37
2023-04-16T04:16:05.485Z,8.38
2023-04-16T04:18:33.457Z,8.39
2023-04-16T04:21:04.785Z,8.41
2023-04-16T04:23:33.125Z,8.43
2023-04-16T04:26:03.848Z,8.43
2023-04-16T04:28:32.458Z,8.44
2023-04-16T04:31:00.853Z,8.42
2023-04-16T04:33:29.983Z,8.37
2023-04-16T04:35:57.867Z,8.34
2023-04-16T04:38:26.792Z,8.32
2023-04-16T04:40:54.622Z,8.35
2023-04-16T04:43:23.276Z,8.35
2023-04-16T04:45:51.305Z,8.39
2023-04-16T04:48:19.749Z,8.40
2023-04-16T04:50:47.855Z,8.38
2023-04-16T04:53:16.468Z,8.37
2023-04-16T04:55:44.396Z,8.37
2023-04-16T04:58:13.416Z,8.33
2023-04-16T05:00:42.955Z,8.31
2023-04-16T05:03:12.723Z,8.33
2023-04-16T05:05:41.420Z,8.35
2023-04-16T05:08:09.744Z,8.36
2023-04-16T05:10:38.215Z,8.39
2023-04-16T05:13:06.550Z,8.41
2023-04-16T05:15:34.358Z,8.40
2023-04-16T05:18:02.420Z,8.39
2023-04-16T05:20:30.456Z,8.38
2023-04-16T05:22:58.193Z,8.37
2023-04-16T05:25:26.201Z,8.31
2023-04-16T05:27:54.005Z,8.23
2023-04-16T05:30:21.897Z,8.20
2023-04-16T05:32:49.727Z,8.17
2023-04-16T05:35:17.918Z,8.18
2023-04-16T05:37:45.855Z,8.18
2023-04-16T05:40:14.173Z,8.15
2023-04-16T05:42:45.945Z,8.16
2023-04-16T05:45:13.794Z,8.17
2023-04-16T05:47:47.422Z,8.17
2023-04-16T05:50:16.612Z,8.17
2023-04-16T05:52:45.252Z,8.18
2023-04-16T05:55:13.460Z,8.16
2023-04-16T05:57:41.473Z,8.14
2023-04-16T06:00:10.048Z,8.18
2023-04-16T06:02:41.076Z,8.17
2023-04-16T06:05:09.260Z,8.16
2023-04-16T06:07:37.554Z,8.17
2023-04-16T06:10:06.337Z,8.19
2023-04-16T06:12:34.105Z,8.21
2023-04-16T06:15:02.041Z,8.26
2023-04-16T06:17:30.234Z,8.28
2023-04-16T06:19:58.121Z,8.30
2023-04-16T06:22:25.869Z,8.30
2023-04-16T06:24:53.584Z,8.30
2023-04-16T06:27:21.422Z,8.31
2023-04-16T06:29:49.471Z,8.30
2023-04-16T06:32:17.530Z,8.28
2023-04-16T06:34:45.810Z,8.27
2023-04-16T06:37:13.627Z,8.26
2023-04-16T06:39:41.517Z,8.26
2023-04-16T06:42:09.473Z,8.27
2023-04-16T06:44:37.438Z,8.28
2023-04-16T06:47:05.534Z,8.30
2023-04-16T06:49:33.394Z,8.33
2023-04-16T06:52:01.988Z,8.35
2023-04-16T06:54:31.079Z,8.37
2023-04-16T06:56:59.029Z,8.38
2023-04-16T06:59:26.734Z,8.40
2023-04-16T07:01:55.105Z,8.40
2023-04-16T07:04:23.414Z,8.39
2023-04-16T07:06:51.930Z,8.38
2023-04-16T07:09:19.664Z,8.37
2023-04-16T07:11:47.430Z,8.39
2023-04-16T07:14:15.225Z,8.40
2023-04-16T07:16:43.076Z,8.40
2023-04-16T07:19:11.484Z,8.40
2023-04-16T07:21:39.497Z,8.40
2023-04-16T07:24:07.282Z,8.41
2023-04-16T07:26:35.980Z,8.45
2023-04-16T07:29:03.881Z,8.49
2023-04-16T07:31:31.756Z,8.50
2023-04-16T07:33:59.654Z,8.53
2023-04-16T07:36:28.417Z,8.55
2023-04-16T07:38:56.300Z,8.60
2023-04-16T07:41:24.160Z,8.63
2023-04-16T07:43:52.515Z,8.69
2023-04-16T07:46:20.383Z,8.75
2023-04-16T07:48:48.202Z,8.81
2023-04-16T07:51:15.955Z,8.85
2023-04-16T07:53:43.897Z,8.89
2023-04-16T07:56:11.783Z,8.93
2023-04-16T07:58:39.831Z,8.96
2023-04-16T08:01:07.561Z,8.99
2023-04-16T08:03:35.856Z,9.03
2023-04-16T08:06:03.971Z,9.04
2023-04-16T08:08:32.744Z,9.01
2023-04-16T08:11:00.832Z,9.02
2023-04-16T08:13:30.396Z,9.04
2023-04-16T08:15:59.421Z,9.08
2023-04-16T08:18:27.415Z,9.11
2023-04-16T08:20:55.356Z,9.13
2023-04-16T08:23:24.261Z,9.17
2023-04-16T08:25:53.043Z,9.20
2023-04-16T08:28:21.310Z,9.22
2023-04-16T08:30:49.143Z,9.22
2023-04-16T08:33:16.874Z,9.18
2023-04-16T08:35:44.684Z,9.16
2023-04-16T08:38:12.559Z,9.17
2023-04-16T08:40:40.860Z,9.18
2023-04-16T08:43:12.451Z,9.18
2023-04-16T08:45:44.917Z,9.19
2023-04-16T08:48:12.883Z,9.19
2023-04-16T08:50:40.862Z,9.22
2023-04-16T08:53:11.185Z,9.25
2023-04-16T08:55:40.953Z,9.26
2023-04-16T08:58:15.905Z,9.28
2023-04-16T09:00:44.200Z,9.29
2023-04-16T09:03:12.401Z,9.31
2023-04-16T09:05:40.999Z,9.32
2023-04-16T09:08:08.928Z,9.32
2023-04-16T09:10:36.842Z,9.32
2023-04-16T09:13:05.173Z,9.34
2023-04-16T09:15:34.975Z,9.32
2023-04-16T09:18:03.301Z,9.29
2023-04-16T09:20:31.269Z,9.31
2023-04-16T09:22:59.296Z,9.33
2023-04-16T09:25:27.120Z,9.35
2023-04-16T09:27:54.929Z,9.37
2023-04-16T09:30:23.386Z,9.41
2023-04-16T09:32:52.038Z,9.45
2023-04-16T09:35:20.098Z,9.48
2023-04-16T09:37:59.004Z,9.49
2023-04-16T09:40:29.049Z,9.48
2023-04-16T09:42:58.006Z,9.46
2023-04-16T09:45:26.280Z,9.43
2023-04-16T09:47:54.762Z,9.46
2023-04-16T09:50:22.924Z,9.42
2023-04-16T09:52:51.780Z,9.40
2023-04-16T09:55:22.911Z,9.39
2023-04-16T09:57:58.336Z,9.41
2023-04-16T10:00:26.264Z,9.44
2023-04-16T10:03:04.642Z,9.45
2023-04-16T10:05:33.061Z,9.47
2023-04-16T10:08:02.157Z,9.48
2023-04-16T10:10:30.639Z,9.49
2023-04-16T10:12:58.734Z,9.46
2023-04-16T10:15:26.753Z,9.41
2023-04-16T10:17:54.715Z,9.41
2023-04-16T10:20:22.896Z,9.35
2023-04-16T10:22:50.795Z,9.33
2023-04-16T10:25:18.603Z,9.33
2023-04-16T10:27:46.441Z,9.34
2023-04-16T10:30:14.344Z,9.36
2023-04-16T10:32:42.194Z,9.37
2023-04-16T10:35:10.325Z,9.40
2023-04-16T10:37:38.173Z,9.39
2023-04-16T10:40:21.792Z,9.41
2023-04-16T10:42:56.392Z,9.45
2023-04-16T10:45:31.827Z,9.49
2023-04-16T10:47:59.729Z,9.46
2023-04-16T10:50:34.133Z,9.42
2023-04-16T10:53:20.928Z,9.41
2023-04-16T10:55:58.185Z,9.41
2023-04-16T10:58:29.726Z,9.37
2023-04-16T11:01:16.852Z,9.38
2023-04-16T11:03:48.461Z,9.37
2023-04-16T11:06:19.465Z,9.36
2023-04-16T11:08:54.496Z,9.34
2023-04-16T11:11:38.209Z,9.32
2023-04-16T11:14:06.809Z,9.30
2023-04-16T11:16:36.937Z,9.25
2023-04-16T11:19:04.691Z,9.23
2023-04-16T11:21:32.697Z,9.21
2023-04-16T11:24:00.590Z,9.20
2023-04-16T11:26:28.948Z,9.19
2023-04-16T11:28:57.305Z,9.14
2023-04-16T11:31:27.343Z,9.13
2023-04-16T11:33:55.920Z,9.11
2023-04-16T11:36:26.125Z,9.11
2023-04-16T11:39:00.943Z,9.12
2023-04-16T11:41:28.890Z,9.10
2023-04-16T11:43:56.882Z,9.11
2023-04-16T11:46:27.652Z,9.14
2023-04-16T11:48:56.446Z,9.15
2023-04-16T11:51:24.320Z,9.15
2023-04-16T11:53:56.201Z,9.16
2023-04-16T11:56:28.522Z,9.14
2023-04-16T11:59:07.160Z,9.14
2023-04-16T12:01:35.594Z,9.16
2023-04-16T12:04:04.012Z,9.17
2023-04-16T12:06:33.020Z,9.19
2023-04-16T12:09:01.497Z,9.22
2023-04-16T12:11:41.582Z,9.24
2023-04-16T12:14:12.477Z,9.25
2023-04-16T12:16:40.522Z,9.27
2023-04-16T12:19:10.620Z,9.27
2023-04-16T12:21:42.284Z,9.25
2023-04-16T12:24:11.378Z,9.24
2023-04-16T12:26:42.893Z,9.24
2023-04-16T12:29:28.912Z,9.24
2023-04-16T12:31:56.908Z,9.25
2023-04-16T12:34:48.189Z,9.26
2023-04-16T12:37:15.419Z,9.27
2023-04-16T12:39:43.677Z,9.26
2023-04-16T12:42:12.798Z,9.25
2023-04-16T12:44:40.586Z,9.23
2023-04-16T12:47:08.471Z,9.22
2023-04-16T12:49:37.634Z,9.20
2023-04-16T12:52:06.375Z,9.18
2023-04-16T12:54:34.260Z,9.21
2023-04-16T12:57:02.102Z,9.23
2023-04-16T12:59:30.087Z,9.26
2023-04-16T13:01:57.940Z,9.30
2023-04-16T13:04:26.904Z,9.34
2023-04-16T13:06:54.964Z,9.36
2023-04-16T13:09:23.480Z,9.37
2023-04-16T13:11:51.358Z,9.39
2023-04-16T13:14:20.415Z,9.41
2023-04-16T13:16:48.267Z,9.45
2023-04-16T13:19:17.081Z,9.48
2023-04-16T13:21:44.860Z,9.48
2023-04-16T13:24:12.644Z,9.50
2023-04-16T13:26:40.428Z,9.54
2023-04-16T13:29:08.574Z,9.56
2023-04-16T13:31:36.905Z,9.58
2023-04-16T13:34:05.160Z,9.61
2023-04-16T13:36:34.147Z,9.58
2023-04-16T13:39:04.797Z,9.58
2023-04-16T13:41:32.648Z,9.60
2023-04-16T13:44:00.406Z,9.61
2023-04-16T13:46:30.261Z,9.63
2023-04-16T13:48:58.130Z,9.64
2023-04-16T13:51:27.640Z,9.65
2023-04-16T13:53:56.280Z,9.64
2023-04-16T13:56:24.447Z,9.65
2023-04-16T13:58:52.369Z,9.65
2023-04-16T14:01:20.772Z,9.67
2023-04-16T14:03:49.224Z,9.67
2023-04-16T14:06:18.351Z,9.69
2023-04-16T14:08:46.379Z,9.71
2023-04-16T14:11:14.278Z,9.69
2023-04-16T14:13:42.712Z,9.70
2023-04-16T14:16:11.015Z,9.70
2023-04-16T14:18:42.467Z,9.71
2023-04-16T14:21:10.643Z,9.73
2023-04-16T14:23:38.577Z,9.72
2023-04-16T14:26:06.419Z,9.71
2023-04-16T14:28:35.532Z,9.71
2023-04-16T14:31:04.362Z,9.73
2023-04-16T14:33:32.361Z,9.73
2023-04-16T14:36:02.686Z,9.73
2023-04-16T14:38:31.377Z,9.72
2023-04-16T14:41:00.577Z,9.72
2023-04-16T14:43:28.759Z,9.71
2023-04-16T14:45:58.627Z,9.70
2023-04-16T14:48:26.478Z,9.67
2023-04-16T14:50:54.240Z,9.65
2023-04-16T14:53:23.000Z,9.62
2023-04-16T14:55:51.899Z,9.61
2023-04-16T14:58:20.456Z,9.63
2023-04-16T15:00:48.170Z,9.61
2023-04-16T15:03:16.254Z,9.60
2023-04-16T15:05:44.196Z,9.60
2023-04-16T15:08:12.863Z,9.59
2023-04-16T15:10:43.337Z,9.60
2023-04-16T15:13:12.109Z,9.62
2023-04-16T15:15:39.948Z,9.62
2023-04-16T15:18:07.924Z,9.64
2023-04-16T15:20:35.998Z,9.61
2023-04-16T15:23:03.827Z,9.59
2023-04-16T15:25:32.590Z,9.59
2023-04-16T15:28:02.376Z,9.58
2023-04-16T15:30:30.524Z,9.59
2023-04-16T15:32:58.305Z,9.57
2023-04-16T15:35:26.303Z,9.56
2023-04-16T15:37:55.259Z,9.55
2023-04-16T15:40:23.251Z,9.55
2023-04-16T15:42:51.192Z,9.56
2023-04-16T15:45:18.989Z,9.56
2023-04-16T15:47:51.080Z,9.56
2023-04-16T15:50:19.965Z,9.55
2023-04-16T15:52:47.711Z,9.56
2023-04-16T15:55:15.738Z,9.55
2023-04-16T15:57:43.616Z,9.53
2023-04-16T16:00:17.141Z,9.45
2023-04-16T16:02:46.468Z,9.37
2023-04-16T16:05:14.503Z,9.35
2023-04-16T16:07:42.972Z,9.30
2023-04-16T16:10:11.385Z,9.28
2023-04-16T16:12:40.653Z,9.28
2023-04-16T16:15:11.168Z,9.27
2023-04-16T16:17:39.435Z,9.25
2023-04-16T16:20:10.638Z,9.24
2023-04-16T16:22:39.283Z,9.21
2023-04-16T16:25:07.686Z,9.17
2023-04-16T16:27:36.435Z,9.16
2023-04-16T16:30:06.650Z,9.16
2023-04-16T16:32:34.866Z,9.14
2023-04-16T16:35:02.777Z,9.14
2023-04-16T16:37:30.847Z,9.13
2023-04-16T16:39:58.716Z,9.11
2023-04-16T16:42:26.654Z,9.06
2023-04-16T16:44:56.675Z,9.01
2023-04-16T16:47:25.423Z,8.98
2023-04-16T16:49:54.721Z,8.96
2023-04-16T16:52:23.702Z,8.96
2023-04-16T16:54:52.750Z,8.97
2023-04-16T16:57:20.990Z,8.99
2023-04-16T16:59:50.427Z,9.00
2023-04-16T17:02:18.636Z,8.97
2023-04-16T17:04:46.367Z,8.96
2023-04-16T17:07:14.617Z,8.92
2023-04-16T17:09:42.505Z,8.93
2023-04-16T17:12:11.185Z,8.95
2023-04-16T17:14:39.483Z,8.96
2023-04-16T17:17:08.032Z,8.97
2023-04-16T17:19:35.805Z,8.98
2023-04-16T17:22:06.488Z,8.99
2023-04-16T17:24:35.581Z,8.99
2023-04-16T17:27:04.099Z,8.98
2023-04-16T17:29:32.796Z,8.99
2023-04-16T17:32:00.966Z,8.99
2023-04-16T17:34:29.071Z,8.98
2023-04-16T17:36:56.898Z,8.97
2023-04-16T17:39:24.652Z,8.95
2023-04-16T17:41:54.803Z,8.96
2023-04-16T17:44:25.646Z,8.97
2023-04-16T17:46:53.415Z,8.96
2023-04-16T17:49:21.162Z,8.96
2023-04-16T17:51:49.201Z,8.95
2023-04-16T17:54:16.920Z,8.94
2023-04-16T17:56:46.114Z,8.93
2023-04-16T17:59:14.158Z,8.93
2023-04-16T18:01:42.084Z,8.94
2023-04-16T18:04:10.373Z,8.97
2023-04-16T18:06:38.596Z,9.00
2023-04-16T18:09:08.504Z,9.02
2023-04-16T18:11:37.335Z,9.07
2023-04-16T18:14:05.468Z,9.14
2023-04-16T18:16:33.221Z,9.17
2023-04-16T18:19:01.497Z,9.20
2023-04-16T18:21:30.507Z,9.22
2023-04-16T18:23:58.856Z,9.26
2023-04-16T18:26:29.709Z,9.28
2023-04-16T18:28:58.216Z,9.31
2023-04-16T18:31:26.840Z,9.33
2023-04-16T18:33:58.027Z,9.36
2023-04-16T18:36:27.080Z,9.39
2023-04-16T18:41:27.175Z,9.44
2023-04-16T18:43:54.996Z,9.46
2023-04-16T18:46:23.070Z,9.48
2023-04-16T18:48:51.157Z,9.48
2023-04-16T18:51:18.936Z,9.49
2023-04-16T18:53:47.181Z,9.49
2023-04-16T18:56:14.999Z,9.51
2023-04-16T18:58:43.372Z,9.51
2023-04-16T19:01:13.566Z,9.52
2023-04-16T19:03:41.632Z,9.53
2023-04-16T19:06:09.924Z,9.53
2023-04-16T19:08:37.696Z,9.54
2023-04-16T19:11:05.897Z,9.54
2023-04-16T19:13:33.985Z,9.54
2023-04-16T19:16:02.515Z,9.55
2023-04-16T19:18:30.856Z,9.53
2023-04-16T19:21:01.965Z,9.52
2023-04-16T19:23:30.005Z,9.52
2023-04-16T19:25:58.072Z,9.53
2023-04-16T19:28:26.276Z,9.53
2023-04-16T19:30:54.265Z,9.55
2023-04-16T19:33:22.990Z,9.59
2023-04-16T19:35:51.065Z,9.58
2023-04-16T19:38:20.080Z,9.58
2023-04-16T19:40:48.222Z,9.60
2023-04-16T19:43:16.303Z,9.58
2023-04-16T19:45:47.574Z,9.56
2023-04-16T19:48:15.946Z,9.56
2023-04-16T19:50:43.891Z,9.56
2023-04-16T19:53:11.814Z,9.54
2023-04-16T19:55:40.262Z,9.54
2023-04-16T19:58:08.299Z,9.55
2023-04-16T20:00:37.247Z,9.54
2023-04-16T20:03:05.866Z,9.56
2023-04-16T20:05:34.199Z,9.57
2023-04-16T20:08:02.202Z,9.59
2023-04-16T20:10:31.580Z,9.59
2023-04-16T20:12:59.613Z,9.57
2023-04-16T20:15:27.449Z,9.57
2023-04-16T20:17:56.420Z,9.58
2023-04-16T20:20:24.585Z,9.60
2023-04-16T20:22:52.802Z,9.59
2023-04-16T20:25:21.575Z,9.51
2023-04-16T20:27:49.336Z,9.49
2023-04-16T20:30:17.243Z,9.51
2023-04-16T20:32:45.082Z,9.50
2023-04-16T20:35:13.019Z,9.47
2023-04-16T20:37:43.193Z,9.48
2023-04-16T20:40:11.450Z,9.51
2023-04-16T20:42:41.078Z,9.46
2023-04-16T20:45:09.751Z,9.39
2023-04-16T20:47:38.109Z,9.38
2023-04-16T20:50:06.432Z,9.38
2023-04-16T20:52:34.952Z,9.35
2023-04-16T20:55:02.855Z,9.30
2023-04-16T20:57:32.075Z,9.24
2023-04-16T20:59:59.975Z,9.14
2023-04-16T21:02:28.396Z,9.07
2023-04-16T21:04:56.531Z,9.03
2023-04-16T21:07:26.054Z,8.96
2023-04-16T21:09:54.125Z,8.93
2023-04-16T21:12:23.561Z,8.88
2023-04-16T21:14:57.278Z,8.83
2023-04-16T21:17:25.038Z,8.79
2023-04-16T21:19:53.440Z,8.78
2023-04-16T21:22:21.212Z,8.75
2023-04-16T21:24:50.062Z,8.71
2023-04-16T21:27:18.209Z,8.67
2023-04-16T21:29:46.024Z,8.64
2023-04-16T21:32:13.830Z,8.62
2023-04-16T21:34:41.579Z,8.59
2023-04-16T21:37:10.381Z,8.54
2023-04-16T21:39:38.249Z,8.50
2023-04-16T21:42:06.064Z,8.46
2023-04-16T21:44:33.917Z,8.45
2023-04-16T21:47:01.831Z,8.41
2023-04-16T21:49:30.039Z,8.42
2023-04-16T21:51:59.199Z,8.42
2023-04-16T21:54:27.249Z,8.43
2023-04-16T21:56:55.136Z,8.41
2023-04-16T21:59:23.302Z,8.38
2023-04-16T22:01:51.106Z,8.36
2023-04-16T22:04:19.039Z,8.34
2023-04-16T22:06:46.945Z,8.30
2023-04-16T22:09:15.567Z,8.29
2023-04-16T22:11:46.528Z,8.27
2023-04-16T22:14:14.619Z,8.25
2023-04-16T22:16:44.701Z,8.22
2023-04-16T22:19:14.160Z,8.20
2023-04-16T22:21:42.592Z,8.19
2023-04-16T22:24:10.564Z,8.18
2023-04-16T22:26:38.587Z,8.18
2023-04-16T22:29:06.732Z,8.17
2023-04-16T22:31:34.950Z,8.15
2023-04-16T22:34:03.643Z,8.15
2023-04-16T22:36:31.902Z,8.15
2023-04-16T22:38:59.669Z,8.14
2023-04-16T22:41:28.361Z,8.12
2023-04-16T22:43:56.566Z,8.10
2023-04-16T22:46:26.343Z,8.09
2023-04-16T22:48:54.714Z,8.06
2023-04-16T22:51:24.464Z,8.05
2023-04-16T22:53:52.188Z,8.05
2023-04-16T22:56:20.007Z,8.03
2023-04-16T22:58:49.408Z,8.01
2023-04-16T23:01:17.579Z,8.01
2023-04-16T23:03:45.819Z,8.04
2023-04-16T23:06:14.132Z,8.05
2023-04-16T23:08:42.410Z,8.08
2023-04-16T23:11:10.172Z,8.10
2023-04-16T23:13:38.322Z,8.11
2023-04-16T23:16:06.912Z,8.12
2023-04-16T23:18:34.908Z,8.13
2023-04-16T23:21:02.775Z,8.16
2023-04-16T23:23:30.923Z,8.20
2023-04-16T23:25:58.858Z,8.22
2023-04-16T23:28:27.206Z,8.25
2023-04-16T23:30:55.359Z,8.27
2023-04-16T23:33:23.355Z,8.32
2023-04-16T23:35:51.186Z,8.31
2023-04-16T23:38:19.585Z,8.30
2023-04-16T23:40:47.509Z,8.29
2023-04-16T23:43:15.443Z,8.27
2023-04-16T23:45:43.298Z,8.26
2023-04-16T23:48:11.393Z,8.26
2023-04-16T23:50:39.175Z,8.26
2023-04-16T23:53:07.033Z,8.25
2023-04-16T23:55:34.765Z,8.25
2023-04-16T23:58:02.686Z,8.25
